Time;durP1;ratioP1;P1;durP2;ratioP2;P2;SDS_P1;SDS_P2;PMS_P1;PMS_P2;Temp;Humidity;BMP_temperature;BMP_pressure;BME280_temperature;BME280_humidity;BME280_pressure;Samples;Min_cycle;Max_cycle;Signal;HPM_P1;HPM_P2
2023/07/01 00:01:19;;;;;;;5.25;2.10;;;15.70;99.90;;;;;;10338487;28;20279;-79
2023/07/01 00:06:44;;;;;;;5.82;1.80;;;15.70;99.90;;;;;;10354202;28;20310;-79
2023/07/01 00:12:05;;;;;;;4.68;1.92;;;15.60;99.90;;;;;;10316762;28;20239;-80
2023/07/01 00:17:27;;;;;;;5.60;1.80;;;15.70;99.90;;;;;;10333169;28;20286;-79
2023/07/01 00:22:49;;;;;;;6.30;1.95;;;15.60;99.90;;;;;;10352667;28;20289;-80
2023/07/01 00:28:11;;;;;;;1.67;1.55;;;15.70;99.90;;;;;;10352310;28;20295;-79
2023/07/01 00:33:32;;;;;;;4.93;2.22;;;15.50;99.90;;;;;;10371831;28;20212;-79
2023/07/01 00:38:54;;;;;;;7.32;2.00;;;15.70;99.90;;;;;;10360194;28;20420;-80
2023/07/01 00:44:15;;;;;;;4.25;1.88;;;15.60;99.90;;;;;;10330659;28;20203;-80
2023/07/01 00:49:38;;;;;;;2.92;1.50;;;15.60;99.90;;;;;;10379816;28;20267;-79
2023/07/01 00:54:59;;;;;;;4.13;1.90;;;15.60;99.90;;;;;;10400088;28;20198;-80
2023/07/01 01:00:21;;;;;;;2.50;1.52;;;15.50;99.90;;;;;;10400061;28;20196;-79
2023/07/01 01:06:23;;;;;;;4.25;1.65;;;15.50;99.90;;;;;;10315047;28;20263;-79
2023/07/01 01:11:47;;;;;;;3.63;1.60;;;15.40;99.90;;;;;;10352685;28;20228;-79
2023/07/01 01:17:16;;;;;;;4.55;2.13;;;15.30;99.90;;;;;;10326518;28;20431;-79
2023/07/01 01:22:46;;;;;;;3.88;2.00;;;15.30;99.90;;;;;;10358264;28;20214;-79
2023/07/01 01:28:15;;;;;;;5.70;2.17;;;15.30;99.90;;;;;;10370722;28;20228;-79
2023/07/01 01:33:39;;;;;;;2.45;1.55;;;;;;;;;;10350854;28;20219;-79
2023/07/01 01:39:06;;;;;;;5.97;1.63;;;;;;;;;;10357828;28;20203;-79
2023/07/01 01:44:35;;;;;;;3.13;1.58;;;;;;;;;;10371011;28;20200;-79
2023/07/01 01:50:01;;;;;;;4.65;2.38;;;;;;;;;;10355020;28;20310;-80
2023/07/01 01:55:23;;;;;;;1.67;1.58;;;;;;;;;;10358134;28;20204;-79
2023/07/01 02:00:48;;;;;;;2.90;1.60;;;;;;;;;;10356955;28;20201;-79
2023/07/01 02:06:10;;;;;;;7.68;1.92;;;;;;;;;;10351642;28;20319;-79
2023/07/01 02:11:31;;;;;;;3.35;1.92;;;;;;;;;;10370203;28;20247;-79
2023/07/01 02:16:54;;;;;;;3.75;1.63;;;;;;;;;;10342357;28;20284;-79
2023/07/01 02:22:16;;;;;;;4.65;1.95;;;;;;;;;;10339428;28;20401;-79
2023/07/01 02:27:37;;;;;;;2.40;1.85;;;;;;;;;;10355527;28;20235;-79
2023/07/01 02:32:59;;;;;;;2.30;1.85;;;;;;;;;;10350664;28;20234;-80
2023/07/01 02:38:21;;;;;;;4.13;2.58;;;;;;;;;;10355435;28;20307;-79
2023/07/01 02:43:42;;;;;;;4.22;2.50;;;;;;;;;;10369145;28;20513;-79
2023/07/01 02:49:04;;;;;;;5.20;2.78;;;;;;;;;;10350059;28;20233;-79
2023/07/01 02:54:25;;;;;;;8.90;4.32;;;;;;;;;;10354191;28;20201;-79
2023/07/01 02:59:48;;;;;;;8.80;4.72;;;;;;;;;;10368657;28;20215;-79
2023/07/01 03:05:10;;;;;;;4.28;3.25;;;;;;;;;;10339340;28;20237;-79
2023/07/01 03:10:32;;;;;;;5.10;2.88;;;;;;;;;;10354171;28;20233;-79
2023/07/01 03:15:55;;;;;;;4.47;2.78;;;;;;;;;;10354304;28;20486;-80
2023/07/01 03:21:17;;;;;;;3.97;2.90;;;;;;;;;;10353539;28;20211;-79
2023/07/01 03:26:39;;;;;;;5.40;2.67;;;;;;;;;;10353952;28;20523;-80
2023/07/01 03:32:03;;;;;;;3.17;2.20;;;;;;;;;;10349234;28;20492;-79
2023/07/01 03:37:24;;;;;;;4.38;2.30;;;;;;;;;;10354041;28;20272;-79
2023/07/01 03:42:46;;;;;;;4.00;2.67;;;;;;;;;;10348516;28;20212;-79
2023/07/01 03:48:08;;;;;;;3.92;2.35;;;;;;;;;;10354709;28;20220;-78
2023/07/01 03:53:29;;;;;;;3.85;2.13;;;;;;;;;;10348762;28;20235;-79
2023/07/01 03:58:51;;;;;;;4.75;2.70;;;;;;;;;;10353389;28;20203;-80
2023/07/01 04:04:13;;;;;;;3.60;2.60;;;;;;;;;;10353615;28;20266;-79
2023/07/01 04:09:34;;;;;;;4.10;2.17;;;;;;;;;;10356098;28;20539;-79
2023/07/01 04:14:56;;;;;;;3.75;2.60;;;;;;;;;;10346927;28;20206;-79
2023/07/01 04:20:19;;;;;;;4.28;2.70;;;;;;;;;;10328452;28;20251;-80
2023/07/01 04:25:41;;;;;;;5.18;2.55;;;;;;;;;;10360256;28;20417;-79
2023/07/01 04:31:03;;;;;;;3.10;1.70;;;;;;;;;;10360030;28;20255;-79
2023/07/01 04:36:25;;;;;;;4.93;1.90;;;;;;;;;;10354979;28;20219;-79
2023/07/01 04:41:46;;;;;;;3.20;1.85;;;;;;;;;;10359825;28;20239;-79
2023/07/01 04:47:07;;;;;;;3.00;1.67;;;16.40;99.90;;;;;;10345918;28;20258;-79
2023/07/01 04:52:29;;;;;;;3.47;2.17;;;16.30;99.90;;;;;;10355296;28;20553;-80
2023/07/01 04:57:51;;;;;;;2.03;1.80;;;16.30;99.90;;;;;;10359154;28;20438;-79
2023/07/01 05:03:13;;;;;;;4.65;1.80;;;16.40;99.90;;;;;;10372525;28;20414;-80
2023/07/01 05:08:34;;;;;;;5.03;1.70;;;16.50;99.90;;;;;;10359309;28;20213;-80
2023/07/01 05:13:56;;;;;;;4.78;1.95;;;16.60;99.90;;;;;;10320828;28;20213;-80
2023/07/01 05:19:17;;;;;;;2.70;1.65;;;16.60;99.90;;;;;;10322952;28;20225;-79
2023/07/01 05:24:38;;;;;;;2.42;1.52;;;16.70;99.90;;;;;;10357947;28;20271;-79
2023/07/01 05:30:00;;;;;;;4.18;2.00;;;16.90;99.90;;;;;;10362185;28;20280;-79
2023/07/01 05:35:21;;;;;;;2.38;1.73;;;17.00;99.90;;;;;;10357388;28;20204;-80
2023/07/01 05:40:43;;;;;;;3.58;1.88;;;17.00;99.90;;;;;;10357281;28;20209;-79
2023/07/01 05:46:04;;;;;;;4.88;1.67;;;17.10;99.90;;;;;;10371246;28;20515;-79
2023/07/01 05:51:25;;;;;;;3.15;1.48;;;17.20;99.90;;;;;;10352242;28;20233;-79
2023/07/01 05:56:46;;;;;;;3.10;1.90;;;17.30;99.90;;;;;;10370797;28;20240;-79
2023/07/01 06:02:08;;;;;;;1.95;1.67;;;17.30;99.90;;;;;;10342986;28;20564;-79
2023/07/01 06:07:29;;;;;;;2.42;1.50;;;17.40;99.90;;;;;;10354509;28;20248;-79
2023/07/01 06:12:50;;;;;;;3.65;1.60;;;17.60;99.90;;;;;;10316877;28;20225;-80
2023/07/01 06:18:12;;;;;;;8.63;2.20;;;17.80;99.90;;;;;;10288769;28;20199;-79
2023/07/01 06:23:34;;;;;;;3.28;1.90;;;18.10;99.90;;;;;;10324869;28;20209;-80
2023/07/01 06:28:55;;;;;;;2.22;1.77;;;18.30;99.90;;;;;;10350812;28;20218;-79
2023/07/01 06:34:17;;;;;;;3.83;1.90;;;18.50;99.90;;;;;;10341516;28;20402;-80
2023/07/01 06:39:38;;;;;;;2.08;1.60;;;18.70;1.00;;;;;;10369322;28;20194;-79
2023/07/01 06:45:00;;;;;;;2.35;1.50;;;18.70;1.00;;;;;;10353178;28;20252;-79
2023/07/01 06:50:21;;;;;;;3.38;1.60;;;18.70;1.00;;;;;;10354739;28;20241;-79
2023/07/01 06:55:43;;;;;;;1.42;1.33;;;18.80;1.00;;;;;;10336437;28;20508;-79
2023/07/01 07:01:04;;;;;;;4.07;1.80;;;19.00;99.90;;;;;;10363676;28;20228;-80
2023/07/01 07:06:25;;;;;;;4.93;2.15;;;19.10;99.90;;;;;;10340447;28;20257;-80
2023/07/01 07:11:47;;;;;;;4.45;1.65;;;19.30;72.80;;;;;;10307367;28;20528;-79
2023/07/01 07:17:08;;;;;;;2.30;1.48;;;19.60;1.00;;;;;;10340583;28;20204;-79
2023/07/01 07:22:29;;;;;;;3.00;1.52;;;19.80;1.00;;;;;;10355029;28;20216;-80
2023/07/01 07:27:50;;;;;;;7.38;2.85;;;20.10;1.00;;;;;;10344210;28;20209;-79
2023/07/01 07:33:12;;;;;;;3.05;1.67;;;20.30;1.00;;;;;;10309567;28;20232;-81
2023/07/01 07:38:33;;;;;;;3.78;1.30;;;20.50;1.00;;;;;;10310949;28;20214;-83
2023/07/01 07:43:54;;;;;;;3.05;1.30;;;21.30;1.00;;;;;;10357407;28;20198;-81
2023/07/01 07:49:16;;;;;;;1.73;1.05;;;21.60;1.00;;;;;;10361735;28;20229;-81
2023/07/01 07:54:38;;;;;;;4.60;1.70;;;22.00;1.00;;;;;;10348110;28;20221;-81
2023/07/01 07:59:59;;;;;;;7.28;1.08;;;22.50;1.00;;;;;;10333859;28;20386;-81
2023/07/01 08:05:21;;;;;;;2.20;1.15;;;23.20;99.90;;;;;;10357398;28;20308;-81
2023/07/01 08:10:45;;;;;;;3.72;1.25;;;23.30;1.00;;;;;;10358369;28;20222;-81
2023/07/01 08:16:06;;;;;;;2.47;1.13;;;23.80;99.90;;;;;;10354814;28;20194;-81
2023/07/01 08:21:27;;;;;;;2.35;1.33;;;24.20;99.90;;;;;;10374589;28;20245;-81
2023/07/01 08:26:48;;;;;;;5.57;1.70;;;24.50;99.90;;;;;;10346332;28;20208;-81
2023/07/01 08:32:10;;;;;;;4.95;1.40;;;24.60;99.90;;;;;;10339926;28;20221;-81
2023/07/01 08:37:31;;;;;;;11.30;3.92;;;24.80;99.90;;;;;;10347202;28;20200;-81
2023/07/01 08:43:01;;;;;;;7.43;2.58;;;25.40;99.90;;;;;;10342088;28;20198;-82
2023/07/01 08:48:24;;;;;;;4.60;1.58;;;25.40;99.90;;;;;;10350979;28;20205;-81
2023/07/01 08:53:47;;;;;;;6.22;1.70;;;25.70;99.90;;;;;;10358028;28;20236;-82
2023/07/01 08:59:09;;;;;;;3.05;1.40;;;25.70;99.90;;;;;;10359169;28;20198;-81
2023/07/01 09:04:30;;;;;;;5.03;1.25;;;25.80;99.90;;;;;;10324837;28;20249;-81
2023/07/01 09:09:52;;;;;;;4.72;1.20;;;26.00;1.00;;;;;;10341535;28;20543;-81
2023/07/01 09:15:13;;;;;;;2.83;1.35;;;;;;;;;;10307168;28;20202;-82
2023/07/01 09:20:34;;;;;;;1.52;1.00;;;26.50;1.00;;;;;;10351114;28;20261;-82
2023/07/01 09:26:17;;;;;;;3.47;0.82;;;26.60;99.90;;;;;;10344524;28;20212;-82
2023/07/01 09:31:49;;;;;;;2.08;1.40;;;26.90;43.40;;;;;;10348268;28;20236;-82
2023/07/01 09:37:17;;;;;;;4.03;0.98;;;27.10;99.90;;;;;;10333860;28;20290;-81
2023/07/01 09:42:53;;;;;;;4.03;1.40;;;26.80;1.00;;;;;;10351613;28;20205;-81
2023/07/01 09:48:18;;;;;;;2.45;1.48;;;27.10;1.00;;;;;;10371116;28;20209;-81
2023/07/01 09:53:40;;;;;;;3.78;1.48;;;26.70;1.00;;;;;;10338963;28;20408;-81
2023/07/01 09:59:01;;;;;;;2.97;1.30;;;26.30;1.00;;;;;;10357788;28;20489;-82
2023/07/01 10:04:25;;;;;;;4.90;1.70;;;26.40;1.00;;;;;;10342575;28;20578;-81
2023/07/01 10:09:48;;;;;;;2.92;1.30;;;25.90;1.00;;;;;;10351035;28;20562;-82
2023/07/01 10:15:14;;;;;;;2.22;1.13;;;25.40;1.00;;;;;;10342056;28;20213;-82
2023/07/01 10:20:35;;;;;;;5.88;1.42;;;26.10;1.00;;;;;;10354083;28;20504;-81
2023/07/01 10:26:23;;;;;;;3.90;1.58;;;25.80;1.00;;;;;;10364900;28;20576;-80
2023/07/01 10:32:13;;;;;;;3.45;1.35;;;25.80;1.00;;;;;;10336767;28;20240;-79
2023/07/01 10:37:35;;;;;;;1.75;1.27;;;25.30;1.00;;;;;;10356925;28;20185;-81
2023/07/01 11:02:38;;;;;;;4.82;1.55;;;26.40;1.00;;;;;;10348744;28;20268;-80
2023/07/01 11:08:08;;;;;;;2.80;1.20;;;27.00;1.00;;;;;;10354190;28;20202;-79
2023/07/01 11:13:30;;;;;;;2.67;1.63;;;27.00;1.00;;;;;;10349817;28;20236;-81
2023/07/01 11:18:53;;;;;;;2.28;1.60;;;26.90;1.00;;;;;;10354658;28;20186;-79
2023/07/01 11:24:23;;;;;;;4.22;1.70;;;26.60;1.00;;;;;;10335480;28;20221;-81
2023/07/01 11:29:47;;;;;;;3.42;1.60;;;26.70;1.00;;;;;;10339813;28;20345;-80
2023/07/01 11:35:08;;;;;;;4.75;1.67;;;26.60;1.00;;;;;;10321551;28;20434;-82
2023/07/01 11:40:40;;;;;;;2.17;1.48;;;26.90;1.00;;;;;;10353513;28;20221;-81
2023/07/01 11:46:01;;;;;;;2.53;1.90;;;27.10;1.00;;;;;;10327317;28;20206;-82
2023/07/01 11:51:38;;;;;;;3.20;1.95;;;;;;;;;;10302600;28;20276;-82
2023/07/01 11:57:09;;;;;;;4.88;2.03;;;;;;;;;;10353346;28;20213;-81
2023/07/01 12:02:31;;;;;;;2.35;1.90;;;;;;;;;;10348876;28;20438;-81
2023/07/01 12:07:57;;;;;;;7.22;1.77;;;;;;;;;;10366837;28;20197;-81
2023/07/01 12:13:31;;;;;;;3.00;2.10;;;;;;;;;;10348060;28;20294;-81
2023/07/01 12:19:01;;;;;;;3.00;1.73;;;;;;;;;;10353048;28;20485;-81
2023/07/01 12:24:25;;;;;;;3.40;1.80;;;;;;;;;;10361492;28;20277;-81
2023/07/01 12:29:47;;;;;;;7.55;3.15;;;;;;;;;;10331596;28;20297;-81
2023/07/01 12:35:08;;;;;;;7.07;3.10;;;;;;;;;;10358433;28;20206;-81
2023/07/01 12:40:31;;;;;;;5.80;2.65;;;;;;;;;;10359748;28;20456;-81
2023/07/01 12:45:53;;;;;;;7.35;3.97;;;;;;;;;;10344872;28;20201;-81
2023/07/01 12:51:14;;;;;;;9.52;4.65;;;;;;;;;;10344367;28;20240;-81
2023/07/01 12:56:35;;;;;;;6.97;2.85;;;;;;;;;;10359449;28;20240;-81
2023/07/01 13:01:57;;;;;;;4.20;2.70;;;;;;;;;;10354308;28;20363;-81
2023/07/01 13:07:18;;;;;;;4.05;2.78;;;;;;;;;;10359954;28;20505;-81
2023/07/01 13:12:40;;;;;;;2.50;2.30;;;;;;;;;;10329773;28;20240;-81
2023/07/01 13:18:06;;;;;;;2.75;2.25;;;;;;;;;;10359104;28;20190;-81
2023/07/01 13:23:28;;;;;;;4.85;3.00;;;;;;;;;;10354709;28;20284;-81
2023/07/01 13:28:50;;;;;;;6.80;2.60;;;;;;;;;;10336822;28;20215;-81
2023/07/01 13:34:12;;;;;;;2.30;2.10;;;;;;;;;;10342151;28;20304;-81
2023/07/01 13:39:40;;;;;;;3.75;2.50;;;;;;;;;;10354093;28;20265;-81
2023/07/01 13:45:03;;;;;;;3.97;2.78;;;;;;;;;;10317378;28;20210;-81
2023/07/01 13:50:25;;;;;;;5.50;2.22;;;;;;;;;;10309029;28;20263;-81
2023/07/01 13:55:48;;;;;;;5.65;2.40;;;;;;;;;;10357316;28;20225;-81
2023/07/01 14:01:10;;;;;;;5.47;2.50;;;24.80;99.90;;;;;;10365769;28;20575;-81
2023/07/01 14:06:37;;;;;;;3.85;2.38;;;24.80;99.90;;;;;;10357270;28;20248;-81
2023/07/01 14:11:58;;;;;;;4.45;2.70;;;24.50;99.90;;;;;;10329461;28;20236;-81
2023/07/01 14:17:20;;;;;;;5.75;2.60;;;24.60;99.90;;;;;;10329498;28;20193;-81
2023/07/01 14:22:41;;;;;;;3.10;2.40;;;24.40;99.90;;;;;;10351219;28;20279;-81
2023/07/01 14:28:08;;;;;;;4.72;2.60;;;24.40;99.90;;;;;;10341098;28;20511;-81
2023/07/01 14:33:54;;;;;;;4.03;2.60;;;24.40;99.90;;;;;;10340541;28;20305;-80
2023/07/01 14:39:45;;;;;;;4.40;2.60;;;24.40;99.90;;;;;;10350383;28;20289;-81
2023/07/01 14:45:07;;;;;;;5.72;2.85;;;24.10;99.90;;;;;;10355191;28;20269;-81
2023/07/01 14:50:28;;;;;;;8.65;2.90;;;24.20;99.90;;;;;;10350064;28;20243;-81
2023/07/01 14:55:50;;;;;;;3.70;2.40;;;24.30;99.90;;;;;;10354904;28;20309;-81
2023/07/01 15:01:11;;;;;;;3.85;2.67;;;24.40;99.90;;;;;;10350935;28;20500;-81
2023/07/01 15:06:35;;;;;;;8.00;2.85;;;24.30;99.90;;;;;;10355336;28;20536;-81
2023/07/01 15:11:56;;;;;;;3.97;2.63;;;24.20;99.90;;;;;;10311958;28;20224;-81
2023/07/01 15:17:19;;;;;;;6.20;3.20;;;24.20;99.90;;;;;;10334301;28;20202;-81
2023/07/01 15:22:40;;;;;;;4.22;2.30;;;24.20;99.90;;;;;;10339487;28;20362;-80
2023/07/01 15:28:02;;;;;;;4.47;2.95;;;23.90;99.90;;;;;;10366378;28;20370;-81
2023/07/01 15:33:23;;;;;;;5.85;3.55;;;23.70;99.90;;;;;;10320971;28;20232;-81
2023/07/01 15:38:45;;;;;;;6.85;4.63;;;23.50;99.90;;;;;;10340034;28;20244;-81
2023/07/01 15:44:06;;;;;;;8.35;3.97;;;23.50;99.90;;;;;;10335137;28;20209;-81
2023/07/01 15:49:29;;;;;;;8.82;3.30;;;23.60;99.90;;;;;;10338157;28;20252;-81
2023/07/01 15:54:50;;;;;;;14.82;7.35;;;23.70;99.90;;;;;;10339945;28;20213;-81
2023/07/01 16:00:12;;;;;;;7.18;4.00;;;23.50;99.90;;;;;;10348993;28;20439;-82
2023/07/01 16:05:33;;;;;;;5.55;3.80;;;;;;;;;;10347412;28;20225;-81
2023/07/01 16:10:55;;;;;;;3.13;2.45;;;;;;;;;;10335334;28;20265;-82
2023/07/01 16:16:17;;;;;;;6.05;3.58;;;;;;;;;;10320980;28;20195;-82
2023/07/01 16:21:41;;;;;;;7.40;3.88;;;;;;;;;;10337163;28;20212;-81
2023/07/01 16:27:03;;;;;;;7.35;4.78;;;;;;;;;;10374372;28;20197;-81
2023/07/01 16:32:24;;;;;;;6.05;3.40;;;;;;;;;;10317381;28;20230;-81
2023/07/01 16:37:46;;;;;;;6.05;4.03;;;;;;;;;;10322417;28;20205;-81
2023/07/01 16:43:12;;;;;;;5.53;2.95;;;;;;;;;;10370663;28;20276;-81
2023/07/01 16:48:59;;;;;;;4.93;3.80;;;;;;;;;;10355954;28;20238;-81
2023/07/01 16:54:32;;;;;;;5.75;3.42;;;;;;;;;;10359620;28;20226;-81
2023/07/01 16:59:54;;;;;;;5.05;3.42;;;;;;;;;;10357396;28;20248;-79
2023/07/01 17:10:37;;;;;;;4.22;3.20;;;;;;;;;;10361907;28;20356;-81
2023/07/01 17:15:59;;;;;;;6.32;3.35;;;;;;;;;;10378175;28;20196;-79
2023/07/01 17:21:21;;;;;;;4.93;3.10;;;;;;;;;;10373067;28;20208;-78
2023/07/01 17:26:43;;;;;;;7.88;2.90;;;;;;;;;;10364162;28;20205;-79
2023/07/01 17:32:05;;;;;;;6.18;3.72;;;;;;;;;;10350413;28;20524;-78
2023/07/01 17:42:47;;;;;;;5.72;3.13;;;;;;;;;;10342423;28;20214;-79
2023/07/01 17:48:09;;;;;;;4.82;3.25;;;;;;;;;;10348154;28;20197;-79
2023/07/01 17:53:30;;;;;;;7.53;3.00;;;21.50;99.90;;;;;;10335775;28;20225;-79
2023/07/01 17:58:51;;;;;;;4.45;2.90;;;21.40;99.90;;;;;;10358172;28;20437;-79
2023/07/01 18:04:12;;;;;;;5.07;3.30;;;;;;;;;;10353238;28;20206;-79
2023/07/01 18:09:33;;;;;;;6.13;3.28;;;21.20;99.90;;;;;;10331881;28;20238;-80
2023/07/01 18:14:54;;;;;;;3.70;3.15;;;21.30;1.00;;;;;;10352678;28;20271;-80
2023/07/01 18:20:23;;;;;;;3.90;3.30;;;21.30;1.00;;;;;;10342829;28;20198;-80
2023/07/01 18:25:45;;;;;;;4.78;3.38;;;21.20;1.00;;;;;;10351418;28;20201;-80
2023/07/01 18:31:07;;;;;;;5.20;3.80;;;21.10;99.90;;;;;;10351903;28;20213;-79
2023/07/01 18:36:28;;;;;;;4.55;3.60;;;20.90;99.90;;;;;;10351243;28;20198;-80
2023/07/01 18:41:49;;;;;;;6.38;3.92;;;20.70;99.90;;;;;;10355466;28;20232;-81
2023/07/01 18:47:11;;;;;;;4.95;3.28;;;20.60;99.90;;;;;;10353427;28;20214;-81
2023/07/01 18:52:32;;;;;;;5.72;4.22;;;20.60;99.90;;;;;;10350741;28;20222;-81
2023/07/01 18:57:53;;;;;;;5.07;4.13;;;20.50;1.00;;;;;;10340885;28;20201;-81
2023/07/01 19:03:15;;;;;;;6.63;4.13;;;20.40;1.00;;;;;;10339911;28;20213;-81
2023/07/01 19:08:37;;;;;;;5.93;4.10;;;20.30;1.00;;;;;;10354124;28;20245;-80
2023/07/01 19:13:58;;;;;;;5.35;4.07;;;20.20;1.00;;;;;;10335365;28;20505;-81
2023/07/01 19:19:20;;;;;;;9.82;5.30;;;20.10;1.00;;;;;;10340612;28;20197;-80
2023/07/01 19:24:41;;;;;;;10.20;7.05;;;20.10;1.00;;;;;;10352604;28;20197;-80
2023/07/01 19:30:09;;;;;;;9.60;6.28;;;20.10;99.90;;;;;;10355478;28;20480;-81
2023/07/01 19:35:33;;;;;;;35.83;15.40;;;20.10;99.90;;;;;;10348293;28;20547;-81
2023/07/01 19:40:55;;;;;;;21.40;10.85;;;19.90;99.90;;;;;;10353813;28;20193;-81
2023/07/01 19:46:16;;;;;;;19.77;9.25;;;19.70;1.00;;;;;;10351686;28;20297;-81
2023/07/01 19:51:38;;;;;;;27.60;12.77;;;19.60;1.00;;;;;;10330788;28;20466;-80
2023/07/01 19:57:00;;;;;;;12.48;7.28;;;19.60;47.20;;;;;;10352794;28;20473;-81
2023/07/01 20:02:21;;;;;;;7.28;5.05;;;19.60;99.90;;;;;;10334087;28;20240;-80
2023/07/01 20:07:43;;;;;;;6.63;4.65;;;19.60;1.00;;;;;;10364815;28;20230;-80
2023/07/01 20:13:05;;;;;;;8.88;5.70;;;19.60;1.00;;;;;;10353325;28;20221;-80
2023/07/01 20:18:28;;;;;;;10.20;6.75;;;19.50;1.00;;;;;;10348458;28;20501;-81
2023/07/01 20:23:49;;;;;;;9.77;6.15;;;19.40;1.00;;;;;;10352908;28;20399;-80
2023/07/01 20:29:10;;;;;;;7.75;6.05;;;19.40;1.00;;;;;;10321114;28;20198;-81
2023/07/01 20:34:32;;;;;;;7.93;5.72;;;19.30;99.90;;;;;;10336485;28;20222;-80
2023/07/01 20:39:53;;;;;;;6.43;5.50;;;19.30;1.00;;;;;;10324448;28;20209;-81
2023/07/01 20:45:14;;;;;;;5.75;5.05;;;19.30;1.00;;;;;;10338819;28;20318;-81
2023/07/01 20:50:36;;;;;;;8.90;5.60;;;19.20;1.00;;;;;;10344405;28;20229;-81
2023/07/01 20:55:57;;;;;;;7.50;5.95;;;19.20;59.90;;;;;;10360617;28;20281;-81
2023/07/01 21:01:19;;;;;;;8.32;5.43;;;19.20;1.00;;;;;;10327488;28;20209;-81
2023/07/01 21:06:40;;;;;;;7.13;5.25;;;19.20;1.00;;;;;;10337867;28;20245;-80
2023/07/01 21:12:02;;;;;;;6.00;5.28;;;19.10;1.00;;;;;;10318731;28;20301;-81
2023/07/01 21:17:25;;;;;;;7.60;5.57;;;19.00;1.00;;;;;;10326267;28;20202;-81
2023/07/01 21:22:47;;;;;;;9.05;5.90;;;18.90;71.20;;;;;;10372420;28;20213;-81
2023/07/01 21:28:10;;;;;;;6.13;5.35;;;18.90;1.00;;;;;;10353447;28;20504;-80
2023/07/01 21:33:31;;;;;;;6.18;4.93;;;18.90;1.00;;;;;;10344173;28;20483;-80
2023/07/01 21:38:52;;;;;;;6.85;4.78;;;18.70;1.00;;;;;;10340360;28;20228;-80
2023/07/01 21:44:16;;;;;;;6.18;4.63;;;18.70;99.90;;;;;;10372304;28;20488;-81
2023/07/01 21:49:38;;;;;;;8.68;4.55;;;18.80;90.20;;;;;;10357123;28;20534;-80
2023/07/01 21:54:59;;;;;;;5.53;4.10;;;18.80;99.90;;;;;;10352449;28;20228;-80
2023/07/01 22:00:22;;;;;;;5.00;4.18;;;18.80;55.20;;;;;;10356708;28;20516;-80
2023/07/01 22:05:43;;;;;;;6.28;4.70;;;18.80;1.00;;;;;;10341929;28;20214;-80
2023/07/01 22:11:05;;;;;;;5.78;4.63;;;18.70;1.00;;;;;;10356775;28;20240;-80
2023/07/01 22:16:26;;;;;;;5.22;4.40;;;18.70;99.90;;;;;;10351757;28;20205;-81
2023/07/01 22:21:48;;;;;;;6.82;5.40;;;18.70;1.00;;;;;;10340799;28;20205;-80
2023/07/01 22:27:09;;;;;;;6.20;4.63;;;18.70;1.00;;;;;;10354724;28;20516;-81
2023/07/01 22:32:33;;;;;;;6.65;5.72;;;18.60;1.00;;;;;;10350701;28;20233;-81
2023/07/01 22:37:54;;;;;;;11.18;5.82;;;18.60;20.00;;;;;;10369696;28;20197;-81
2023/07/01 22:43:16;;;;;;;11.18;6.38;;;18.60;99.90;;;;;;10337069;28;20447;-80
2023/07/01 22:48:38;;;;;;;5.45;4.80;;;18.60;99.90;;;;;;10355581;28;20215;-80
2023/07/01 22:54:00;;;;;;;5.35;4.53;;;18.60;99.90;;;;;;10349241;28;20237;-80
2023/07/01 22:59:21;;;;;;;7.18;5.70;;;18.50;99.90;;;;;;10355037;28;20202;-79
2023/07/01 23:04:42;;;;;;;6.10;4.80;;;18.50;99.90;;;;;;10336164;28;20236;-81
2023/07/01 23:10:04;;;;;;;6.68;5.25;;;18.50;1.00;;;;;;10354681;28;20264;-81
2023/07/01 23:15:26;;;;;;;8.55;5.43;;;18.40;99.90;;;;;;10353796;28;20256;-81
2023/07/01 23:20:47;;;;;;;7.53;5.68;;;18.30;99.90;;;;;;10350435;28;20218;-80
2023/07/01 23:26:12;;;;;;;8.18;6.40;;;18.20;1.00;;;;;;10349037;28;20208;-81
2023/07/01 23:31:33;;;;;;;6.43;5.65;;;18.00;99.90;;;;;;10349148;28;20232;-80
2023/07/01 23:36:55;;;;;;;7.38;6.18;;;;;;;;;;10341102;28;20244;-81
2023/07/01 23:42:16;;;;;;;7.93;5.70;;;17.70;99.90;;;;;;10348812;28;20454;-80
2023/07/01 23:47:37;;;;;;;6.65;5.30;;;17.70;99.90;;;;;;10353708;28;20208;-80
2023/07/01 23:52:59;;;;;;;7.07;4.55;;;17.70;99.90;;;;;;10349806;28;20268;-80
2023/07/01 23:58:20;;;;;;;5.28;4.32;;;17.70;99.90;;;;;;10340039;28;20200;-80
